sensor_id;sensor_type;location;lat;lon;timestamp;P1;P2;P0
62591;PMS5003;48659;41.622;2.276;2023-11-18T00:02:17;17;17;
62591;PMS5003;48659;41.622;2.276;2023-11-18T00:04:45;29;21;
62591;PMS5003;48659;41.622;2.276;2023-11-18T00:07:13;23;21;
62591;PMS5003;48659;41.622;2.276;2023-11-18T00:09:40;26;22;
62591;PMS5003;48659;41.622;2.276;2023-11-18T00:12:07;17;16;
62591;PMS5003;48659;41.622;2.276;2023-11-18T00:14:34;23;21;
62591;PMS5003;48659;41.622;2.276;2023-11-18T00:17:02;20;19;
62591;PMS5003;48659;41.622;2.276;2023-11-18T00:19:29;25;21;
62591;PMS5003;48659;41.622;2.276;2023-11-18T00:21:57;25;21;
62591;PMS5003;48659;41.622;2.276;2023-11-18T00:24:25;21;18;
62591;PMS5003;48659;41.622;2.276;2023-11-18T00:26:52;22;19;
62591;PMS5003;48659;41.622;2.276;2023-11-18T00:29:27;28;23;
62591;PMS5003;48659;41.622;2.276;2023-11-18T00:31:56;23;22;
62591;PMS5003;48659;41.622;2.276;2023-11-18T00:34:23;27;20;
62591;PMS5003;48659;41.622;2.276;2023-11-18T00:36:51;31;26;
62591;PMS5003;48659;41.622;2.276;2023-11-18T00:39:18;25;24;
62591;PMS5003;48659;41.622;2.276;2023-11-18T00:41:46;20;20;
62591;PMS5003;48659;41.622;2.276;2023-11-18T00:44:13;22;19;
62591;PMS5003;48659;41.622;2.276;2023-11-18T00:46:41;26;21;
62591;PMS5003;48659;41.622;2.276;2023-11-18T00:49:09;20;17;
62591;PMS5003;48659;41.622;2.276;2023-11-18T00:51:36;23;18;
62591;PMS5003;48659;41.622;2.276;2023-11-18T00:54:04;21;20;
62591;PMS5003;48659;41.622;2.276;2023-11-18T00:56:33;19;17;
62591;PMS5003;48659;41.622;2.276;2023-11-18T00:59:01;20;19;
62591;PMS5003;48659;41.622;2.276;2023-11-18T01:01:29;17;16;
62591;PMS5003;48659;41.622;2.276;2023-11-18T01:03:58;20;18;
62591;PMS5003;48659;41.622;2.276;2023-11-18T01:06:26;20;17;
62591;PMS5003;48659;41.622;2.276;2023-11-18T01:08:54;19;19;
62591;PMS5003;48659;41.622;2.276;2023-11-18T01:11:21;22;22;
62591;PMS5003;48659;41.622;2.276;2023-11-18T01:13:49;20;16;
62591;PMS5003;48659;41.622;2.276;2023-11-18T01:16:17;17;15;
62591;PMS5003;48659;41.622;2.276;2023-11-18T01:18:45;21;16;
62591;PMS5003;48659;41.622;2.276;2023-11-18T01:21:12;19;17;
62591;PMS5003;48659;41.622;2.276;2023-11-18T01:23:40;21;18;
62591;PMS5003;48659;41.622;2.276;2023-11-18T01:26:08;20;17;
62591;PMS5003;48659;41.622;2.276;2023-11-18T01:28:35;19;18;
62591;PMS5003;48659;41.622;2.276;2023-11-18T01:31:04;21;15;
62591;PMS5003;48659;41.622;2.276;2023-11-18T01:33:32;21;18;
62591;PMS5003;48659;41.622;2.276;2023-11-18T01:36:00;18;18;
62591;PMS5003;48659;41.622;2.276;2023-11-18T01:38:28;21;19;
62591;PMS5003;48659;41.622;2.276;2023-11-18T01:40:56;22;21;
62591;PMS5003;48659;41.622;2.276;2023-11-18T01:43:24;21;19;
62591;PMS5003;48659;41.622;2.276;2023-11-18T01:45:52;20;17;
62591;PMS5003;48659;41.622;2.276;2023-11-18T01:48:20;23;18;
62591;PMS5003;48659;41.622;2.276;2023-11-18T01:50:48;21;19;
62591;PMS5003;48659;41.622;2.276;2023-11-18T01:53:16;32;26;
62591;PMS5003;48659;41.622;2.276;2023-11-18T01:55:44;21;18;
62591;PMS5003;48659;41.622;2.276;2023-11-18T01:58:12;26;22;
62591;PMS5003;48659;41.622;2.276;2023-11-18T02:00:40;20;19;
62591;PMS5003;48659;41.622;2.276;2023-11-18T02:03:09;19;18;
62591;PMS5003;48659;41.622;2.276;2023-11-18T02:05:36;25;18;
62591;PMS5003;48659;41.622;2.276;2023-11-18T02:08:04;18;15;
62591;PMS5003;48659;41.622;2.276;2023-11-18T02:10:33;18;15;
62591;PMS5003;48659;41.622;2.276;2023-11-18T02:13:03;18;18;
62591;PMS5003;48659;41.622;2.276;2023-11-18T02:15:37;22;18;
62591;PMS5003;48659;41.622;2.276;2023-11-18T02:21:59;23;21;
62591;PMS5003;48659;41.622;2.276;2023-11-18T02:24:29;17;15;
62591;PMS5003;48659;41.622;2.276;2023-11-18T02:26:58;22;20;
62591;PMS5003;48659;41.622;2.276;2023-11-18T02:29:27;20;17;
62591;PMS5003;48659;41.622;2.276;2023-11-18T02:32:01;17;16;
62591;PMS5003;48659;41.622;2.276;2023-11-18T02:34:35;17;16;
62591;PMS5003;48659;41.622;2.276;2023-11-18T02:37:14;22;18;
62591;PMS5003;48659;41.622;2.276;2023-11-18T02:39:43;18;17;
62591;PMS5003;48659;41.622;2.276;2023-11-18T02:42:15;18;17;
62591;PMS5003;48659;41.622;2.276;2023-11-18T02:44:42;17;15;
62591;PMS5003;48659;41.622;2.276;2023-11-18T02:47:15;17;14;
62591;PMS5003;48659;41.622;2.276;2023-11-18T02:49:43;21;19;
62591;PMS5003;48659;41.622;2.276;2023-11-18T02:52:11;17;14;
62591;PMS5003;48659;41.622;2.276;2023-11-18T02:54:38;16;14;
62591;PMS5003;48659;41.622;2.276;2023-11-18T02:57:06;19;17;
62591;PMS5003;48659;41.622;2.276;2023-11-18T02:59:33;18;14;
62591;PMS5003;48659;41.622;2.276;2023-11-18T03:02:01;20;17;
62591;PMS5003;48659;41.622;2.276;2023-11-18T03:04:28;12;12;
62591;PMS5003;48659;41.622;2.276;2023-11-18T03:06:55;17;16;
62591;PMS5003;48659;41.622;2.276;2023-11-18T03:09:23;19;17;
62591;PMS5003;48659;41.622;2.276;2023-11-18T03:11:50;16;15;
62591;PMS5003;48659;41.622;2.276;2023-11-18T03:14:18;16;16;
62591;PMS5003;48659;41.622;2.276;2023-11-18T03:16:46;23;21;
62591;PMS5003;48659;41.622;2.276;2023-11-18T03:19:14;16;15;
62591;PMS5003;48659;41.622;2.276;2023-11-18T03:21:41;18;14;
62591;PMS5003;48659;41.622;2.276;2023-11-18T03:24:15;18;18;
62591;PMS5003;48659;41.622;2.276;2023-11-18T03:26:48;16;16;
62591;PMS5003;48659;41.622;2.276;2023-11-18T03:29:15;17;15;
62591;PMS5003;48659;41.622;2.276;2023-11-18T03:31:43;16;14;
62591;PMS5003;48659;41.622;2.276;2023-11-18T03:34:15;20;18;
62591;PMS5003;48659;41.622;2.276;2023-11-18T03:36:44;18;17;
62591;PMS5003;48659;41.622;2.276;2023-11-18T03:39:12;15;13;
62591;PMS5003;48659;41.622;2.276;2023-11-18T03:41:39;17;14;
62591;PMS5003;48659;41.622;2.276;2023-11-18T03:44:07;17;17;
62591;PMS5003;48659;41.622;2.276;2023-11-18T03:46:35;21;18;
62591;PMS5003;48659;41.622;2.276;2023-11-18T03:49:03;20;17;
62591;PMS5003;48659;41.622;2.276;2023-11-18T03:51:31;21;18;
62591;PMS5003;48659;41.622;2.276;2023-11-18T03:54:00;19;12;
62591;PMS5003;48659;41.622;2.276;2023-11-18T03:56:27;17;14;
62591;PMS5003;48659;41.622;2.276;2023-11-18T03:58:55;24;21;
62591;PMS5003;48659;41.622;2.276;2023-11-18T04:01:23;27;21;
62591;PMS5003;48659;41.622;2.276;2023-11-18T04:03:52;30;21;
62591;PMS5003;48659;41.622;2.276;2023-11-18T04:06:20;20;16;
62591;PMS5003;48659;41.622;2.276;2023-11-18T04:08:48;17;15;
62591;PMS5003;48659;41.622;2.276;2023-11-18T04:11:16;17;17;
62591;PMS5003;48659;41.622;2.276;2023-11-18T04:13:44;19;17;
62591;PMS5003;48659;41.622;2.276;2023-11-18T04:16:15;17;14;
62591;PMS5003;48659;41.622;2.276;2023-11-18T04:18:45;16;14;
62591;PMS5003;48659;41.622;2.276;2023-11-18T04:21:16;15;15;
62591;PMS5003;48659;41.622;2.276;2023-11-18T04:23:44;22;19;
62591;PMS5003;48659;41.622;2.276;2023-11-18T04:26:12;15;14;
62591;PMS5003;48659;41.622;2.276;2023-11-18T04:28:41;15;15;
62591;PMS5003;48659;41.622;2.276;2023-11-18T04:31:15;21;19;
62591;PMS5003;48659;41.622;2.276;2023-11-18T04:33:43;19;19;
62591;PMS5003;48659;41.622;2.276;2023-11-18T04:36:11;21;20;
62591;PMS5003;48659;41.622;2.276;2023-11-18T04:38:38;19;18;
62591;PMS5003;48659;41.622;2.276;2023-11-18T04:41:06;18;17;
62591;PMS5003;48659;41.622;2.276;2023-11-18T04:43:34;16;14;
62591;PMS5003;48659;41.622;2.276;2023-11-18T04:46:02;21;18;
62591;PMS5003;48659;41.622;2.276;2023-11-18T04:48:31;20;16;
62591;PMS5003;48659;41.622;2.276;2023-11-18T04:50:58;18;15;
62591;PMS5003;48659;41.622;2.276;2023-11-18T04:53:26;20;18;
62591;PMS5003;48659;41.622;2.276;2023-11-18T04:55:53;20;18;
62591;PMS5003;48659;41.622;2.276;2023-11-18T04:58:21;22;14;
62591;PMS5003;48659;41.622;2.276;2023-11-18T05:00:53;19;16;
62591;PMS5003;48659;41.622;2.276;2023-11-18T05:03:22;21;18;
62591;PMS5003;48659;41.622;2.276;2023-11-18T05:05:49;21;17;
62591;PMS5003;48659;41.622;2.276;2023-11-18T05:08:18;19;17;
62591;PMS5003;48659;41.622;2.276;2023-11-18T05:10:47;27;23;
62591;PMS5003;48659;41.622;2.276;2023-11-18T05:13:15;23;23;
62591;PMS5003;48659;41.622;2.276;2023-11-18T05:15:43;24;23;
62591;PMS5003;48659;41.622;2.276;2023-11-18T05:18:15;19;16;
62591;PMS5003;48659;41.622;2.276;2023-11-18T05:20:43;22;21;
62591;PMS5003;48659;41.622;2.276;2023-11-18T05:23:12;25;18;
62591;PMS5003;48659;41.622;2.276;2023-11-18T05:25:39;20;18;
62591;PMS5003;48659;41.622;2.276;2023-11-18T05:28:08;23;20;
62591;PMS5003;48659;41.622;2.276;2023-11-18T05:30:36;27;22;
62591;PMS5003;48659;41.622;2.276;2023-11-18T05:33:04;23;18;
62591;PMS5003;48659;41.622;2.276;2023-11-18T05:35:32;22;20;
62591;PMS5003;48659;41.622;2.276;2023-11-18T05:37:59;24;22;
62591;PMS5003;48659;41.622;2.276;2023-11-18T05:40:28;23;22;
62591;PMS5003;48659;41.622;2.276;2023-11-18T05:42:55;22;20;
62591;PMS5003;48659;41.622;2.276;2023-11-18T05:45:25;17;14;
62591;PMS5003;48659;41.622;2.276;2023-11-18T05:47:52;20;19;
62591;PMS5003;48659;41.622;2.276;2023-11-18T05:50:20;20;20;
62591;PMS5003;48659;41.622;2.276;2023-11-18T05:52:48;25;22;
62591;PMS5003;48659;41.622;2.276;2023-11-18T05:55:15;18;15;
62591;PMS5003;48659;41.622;2.276;2023-11-18T05:57:43;24;20;
62591;PMS5003;48659;41.622;2.276;2023-11-18T06:00:15;26;22;
62591;PMS5003;48659;41.622;2.276;2023-11-18T06:02:48;20;20;
62591;PMS5003;48659;41.622;2.276;2023-11-18T06:05:19;25;20;
62591;PMS5003;48659;41.622;2.276;2023-11-18T06:07:47;19;19;
62591;PMS5003;48659;41.622;2.276;2023-11-18T06:10:18;23;21;
62591;PMS5003;48659;41.622;2.276;2023-11-18T06:12:46;28;24;
62591;PMS5003;48659;41.622;2.276;2023-11-18T06:15:14;23;22;
62591;PMS5003;48659;41.622;2.276;2023-11-18T06:17:43;24;18;
62591;PMS5003;48659;41.622;2.276;2023-11-18T06:20:17;25;22;
62591;PMS5003;48659;41.622;2.276;2023-11-18T06:22:46;26;21;
62591;PMS5003;48659;41.622;2.276;2023-11-18T06:25:14;24;21;
62591;PMS5003;48659;41.622;2.276;2023-11-18T06:27:43;21;19;
62591;PMS5003;48659;41.622;2.276;2023-11-18T06:30:11;25;24;
62591;PMS5003;48659;41.622;2.276;2023-11-18T06:32:39;24;22;
62591;PMS5003;48659;41.622;2.276;2023-11-18T06:35:07;23;21;
62591;PMS5003;48659;41.622;2.276;2023-11-18T06:37:35;22;19;
62591;PMS5003;48659;41.622;2.276;2023-11-18T06:40:02;24;19;
62591;PMS5003;48659;41.622;2.276;2023-11-18T06:42:30;18;18;
62591;PMS5003;48659;41.622;2.276;2023-11-18T06:44:58;19;18;
62591;PMS5003;48659;41.622;2.276;2023-11-18T06:47:25;20;20;
62591;PMS5003;48659;41.622;2.276;2023-11-18T06:49:53;20;20;
62591;PMS5003;48659;41.622;2.276;2023-11-18T06:52:20;19;17;
62591;PMS5003;48659;41.622;2.276;2023-11-18T06:54:48;21;19;
62591;PMS5003;48659;41.622;2.276;2023-11-18T06:57:16;19;18;
62591;PMS5003;48659;41.622;2.276;2023-11-18T06:59:43;26;21;
62591;PMS5003;48659;41.622;2.276;2023-11-18T07:02:10;20;17;
62591;PMS5003;48659;41.622;2.276;2023-11-18T07:04:38;24;20;
62591;PMS5003;48659;41.622;2.276;2023-11-18T07:07:17;22;19;
62591;PMS5003;48659;41.622;2.276;2023-11-18T07:09:49;25;23;
62591;PMS5003;48659;41.622;2.276;2023-11-18T07:12:17;20;17;
62591;PMS5003;48659;41.622;2.276;2023-11-18T07:14:44;22;20;
62591;PMS5003;48659;41.622;2.276;2023-11-18T07:17:14;25;23;
62591;PMS5003;48659;41.622;2.276;2023-11-18T07:19:43;19;19;
62591;PMS5003;48659;41.622;2.276;2023-11-18T07:22:17;19;19;
62591;PMS5003;48659;41.622;2.276;2023-11-18T07:24:45;20;18;
62591;PMS5003;48659;41.622;2.276;2023-11-18T07:27:17;21;18;
62591;PMS5003;48659;41.622;2.276;2023-11-18T07:29:44;25;22;
62591;PMS5003;48659;41.622;2.276;2023-11-18T07:32:12;22;20;
62591;PMS5003;48659;41.622;2.276;2023-11-18T07:34:39;24;18;
62591;PMS5003;48659;41.622;2.276;2023-11-18T07:37:07;20;19;
62591;PMS5003;48659;41.622;2.276;2023-11-18T07:39:34;22;18;
62591;PMS5003;48659;41.622;2.276;2023-11-18T07:42:02;24;21;
62591;PMS5003;48659;41.622;2.276;2023-11-18T07:44:30;23;18;
62591;PMS5003;48659;41.622;2.276;2023-11-18T07:46:58;20;18;
62591;PMS5003;48659;41.622;2.276;2023-11-18T07:49:25;24;19;
62591;PMS5003;48659;41.622;2.276;2023-11-18T07:51:53;21;19;
62591;PMS5003;48659;41.622;2.276;2023-11-18T07:54:20;17;16;
62591;PMS5003;48659;41.622;2.276;2023-11-18T07:56:47;22;19;
62591;PMS5003;48659;41.622;2.276;2023-11-18T07:59:16;23;21;
62591;PMS5003;48659;41.622;2.276;2023-11-18T08:01:43;15;14;
62591;PMS5003;48659;41.622;2.276;2023-11-18T08:04:11;15;15;
62591;PMS5003;48659;41.622;2.276;2023-11-18T08:06:39;12;11;
62591;PMS5003;48659;41.622;2.276;2023-11-18T08:09:14;12;12;
62591;PMS5003;48659;41.622;2.276;2023-11-18T08:11:42;28;23;
62591;PMS5003;48659;41.622;2.276;2023-11-18T08:14:10;35;33;
62591;PMS5003;48659;41.622;2.276;2023-11-18T08:16:37;40;32;
62591;PMS5003;48659;41.622;2.276;2023-11-18T08:19:05;33;26;
62591;PMS5003;48659;41.622;2.276;2023-11-18T08:21:33;27;23;
62591;PMS5003;48659;41.622;2.276;2023-11-18T08:24:00;25;22;
62591;PMS5003;48659;41.622;2.276;2023-11-18T08:26:27;27;23;
62591;PMS5003;48659;41.622;2.276;2023-11-18T08:28:54;23;20;
62591;PMS5003;48659;41.622;2.276;2023-11-18T08:31:22;19;17;
62591;PMS5003;48659;41.622;2.276;2023-11-18T08:33:50;17;17;
62591;PMS5003;48659;41.622;2.276;2023-11-18T08:36:17;18;16;
62591;PMS5003;48659;41.622;2.276;2023-11-18T08:38:45;12;12;
62591;PMS5003;48659;41.622;2.276;2023-11-18T08:41:12;13;11;
62591;PMS5003;48659;41.622;2.276;2023-11-18T08:43:39;13;13;
62591;PMS5003;48659;41.622;2.276;2023-11-18T08:46:07;17;14;
62591;PMS5003;48659;41.622;2.276;2023-11-18T08:48:35;11;11;
62591;PMS5003;48659;41.622;2.276;2023-11-18T08:51:03;14;11;
62591;PMS5003;48659;41.622;2.276;2023-11-18T08:53:31;13;12;
62591;PMS5003;48659;41.622;2.276;2023-11-18T08:55:59;14;13;
62591;PMS5003;48659;41.622;2.276;2023-11-18T08:58:26;26;20;
62591;PMS5003;48659;41.622;2.276;2023-11-18T09:00:55;14;12;
62591;PMS5003;48659;41.622;2.276;2023-11-18T09:03:24;18;15;
62591;PMS5003;48659;41.622;2.276;2023-11-18T09:05:55;17;16;
62591;PMS5003;48659;41.622;2.276;2023-11-18T09:08:25;22;22;
62591;PMS5003;48659;41.622;2.276;2023-11-18T09:10:53;17;16;
62591;PMS5003;48659;41.622;2.276;2023-11-18T09:13:21;29;27;
62591;PMS5003;48659;41.622;2.276;2023-11-18T09:15:49;19;18;
62591;PMS5003;48659;41.622;2.276;2023-11-18T09:18:17;16;14;
62591;PMS5003;48659;41.622;2.276;2023-11-18T09:20:44;22;18;
62591;PMS5003;48659;41.622;2.276;2023-11-18T09:23:11;22;20;
62591;PMS5003;48659;41.622;2.276;2023-11-18T09:25:40;21;14;
62591;PMS5003;48659;41.622;2.276;2023-11-18T09:28:08;28;27;
62591;PMS5003;48659;41.622;2.276;2023-11-18T09:30:36;28;25;
62591;PMS5003;48659;41.622;2.276;2023-11-18T09:33:04;30;25;
62591;PMS5003;48659;41.622;2.276;2023-11-18T09:35:31;20;19;
62591;PMS5003;48659;41.622;2.276;2023-11-18T09:37:58;19;19;
62591;PMS5003;48659;41.622;2.276;2023-11-18T09:40:26;22;20;
62591;PMS5003;48659;41.622;2.276;2023-11-18T09:42:58;24;18;
62591;PMS5003;48659;41.622;2.276;2023-11-18T09:45:26;16;14;
62591;PMS5003;48659;41.622;2.276;2023-11-18T09:47:54;16;16;
62591;PMS5003;48659;41.622;2.276;2023-11-18T09:50:21;18;15;
62591;PMS5003;48659;41.622;2.276;2023-11-18T09:52:54;23;21;
62591;PMS5003;48659;41.622;2.276;2023-11-18T09:55:32;18;17;
62591;PMS5003;48659;41.622;2.276;2023-11-18T09:58:05;16;14;
62591;PMS5003;48659;41.622;2.276;2023-11-18T10:00:45;16;14;
62591;PMS5003;48659;41.622;2.276;2023-11-18T10:03:15;17;14;
62591;PMS5003;48659;41.622;2.276;2023-11-18T10:05:43;20;19;
62591;PMS5003;48659;41.622;2.276;2023-11-18T10:08:14;38;37;
62591;PMS5003;48659;41.622;2.276;2023-11-18T10:10:44;9;9;
62591;PMS5003;48659;41.622;2.276;2023-11-18T10:13:11;20;14;
62591;PMS5003;48659;41.622;2.276;2023-11-18T10:15:39;16;16;
62591;PMS5003;48659;41.622;2.276;2023-11-18T10:18:17;11;8;
62591;PMS5003;48659;41.622;2.276;2023-11-18T10:20:46;10;10;
62591;PMS5003;48659;41.622;2.276;2023-11-18T10:23:14;14;12;
62591;PMS5003;48659;41.622;2.276;2023-11-18T10:25:44;16;13;
62591;PMS5003;48659;41.622;2.276;2023-11-18T10:28:20;17;11;
62591;PMS5003;48659;41.622;2.276;2023-11-18T10:30:48;14;12;
62591;PMS5003;48659;41.622;2.276;2023-11-18T10:33:17;14;12;
62591;PMS5003;48659;41.622;2.276;2023-11-18T10:35:52;18;15;
62591;PMS5003;48659;41.622;2.276;2023-11-18T10:38:19;16;13;
62591;PMS5003;48659;41.622;2.276;2023-11-18T10:40:46;19;15;
62591;PMS5003;48659;41.622;2.276;2023-11-18T10:43:14;13;11;
62591;PMS5003;48659;41.622;2.276;2023-11-18T10:45:42;16;14;
62591;PMS5003;48659;41.622;2.276;2023-11-18T10:48:16;18;17;
62591;PMS5003;48659;41.622;2.276;2023-11-18T10:50:45;20;17;
62591;PMS5003;48659;41.622;2.276;2023-11-18T10:53:14;15;13;
62591;PMS5003;48659;41.622;2.276;2023-11-18T10:55:43;14;13;
62591;PMS5003;48659;41.622;2.276;2023-11-18T10:58:11;15;13;
62591;PMS5003;48659;41.622;2.276;2023-11-18T11:00:48;19;15;
62591;PMS5003;48659;41.622;2.276;2023-11-18T11:03:17;16;15;
62591;PMS5003;48659;41.622;2.276;2023-11-18T11:05:44;12;12;
62591;PMS5003;48659;41.622;2.276;2023-11-18T11:08:13;10;10;
62591;PMS5003;48659;41.622;2.276;2023-11-18T11:10:41;14;14;
62591;PMS5003;48659;41.622;2.276;2023-11-18T11:13:09;7;6;
62591;PMS5003;48659;41.622;2.276;2023-11-18T11:15:40;14;10;
62591;PMS5003;48659;41.622;2.276;2023-11-18T11:18:10;9;9;
62591;PMS5003;48659;41.622;2.276;2023-11-18T11:20:39;13;11;
62591;PMS5003;48659;41.622;2.276;2023-11-18T11:23:10;8;8;
62591;PMS5003;48659;41.622;2.276;2023-11-18T11:25:48;11;10;
62591;PMS5003;48659;41.622;2.276;2023-11-18T11:28:22;9;6;
62591;PMS5003;48659;41.622;2.276;2023-11-18T11:30:55;11;7;
62591;PMS5003;48659;41.622;2.276;2023-11-18T11:33:32;6;6;
62591;PMS5003;48659;41.622;2.276;2023-11-18T11:36:05;6;6;
62591;PMS5003;48659;41.622;2.276;2023-11-18T11:38:38;5;4;
62591;PMS5003;48659;41.622;2.276;2023-11-18T11:41:05;8;7;
62591;PMS5003;48659;41.622;2.276;2023-11-18T11:43:34;10;7;
62591;PMS5003;48659;41.622;2.276;2023-11-18T11:46:01;9;6;
62591;PMS5003;48659;41.622;2.276;2023-11-18T11:48:29;4;4;
62591;PMS5003;48659;41.622;2.276;2023-11-18T11:51:03;6;6;
62591;PMS5003;48659;41.622;2.276;2023-11-18T11:53:42;2;2;
62591;PMS5003;48659;41.622;2.276;2023-11-18T11:56:13;3;3;
62591;PMS5003;48659;41.622;2.276;2023-11-18T11:58:41;5;5;
62591;PMS5003;48659;41.622;2.276;2023-11-18T12:01:21;5;4;
62591;PMS5003;48659;41.622;2.276;2023-11-18T12:03:52;6;3;
62591;PMS5003;48659;41.622;2.276;2023-11-18T12:06:19;3;3;
62591;PMS5003;48659;41.622;2.276;2023-11-18T12:08:47;2;2;
62591;PMS5003;48659;41.622;2.276;2023-11-18T12:11:16;3;3;
62591;PMS5003;48659;41.622;2.276;2023-11-18T12:13:59;5;4;
62591;PMS5003;48659;41.622;2.276;2023-11-18T12:16:40;2;2;
62591;PMS5003;48659;41.622;2.276;2023-11-18T12:19:29;4;4;
62591;PMS5003;48659;41.622;2.276;2023-11-18T12:21:57;7;4;
62591;PMS5003;48659;41.622;2.276;2023-11-18T12:24:25;5;3;
62591;PMS5003;48659;41.622;2.276;2023-11-18T12:26:53;4;4;
62591;PMS5003;48659;41.622;2.276;2023-11-18T12:29:31;6;4;
62591;PMS5003;48659;41.622;2.276;2023-11-18T12:31:59;9;7;
62591;PMS5003;48659;41.622;2.276;2023-11-18T12:34:48;5;5;
62591;PMS5003;48659;41.622;2.276;2023-11-18T12:37:28;5;4;
62591;PMS5003;48659;41.622;2.276;2023-11-18T12:40:39;3;3;
62591;PMS5003;48659;41.622;2.276;2023-11-18T12:43:19;4;3;
62591;PMS5003;48659;41.622;2.276;2023-11-18T12:46:45;3;3;
62591;PMS5003;48659;41.622;2.276;2023-11-18T12:49:16;7;4;
62591;PMS5003;48659;41.622;2.276;2023-11-18T12:51:44;5;3;
62591;PMS5003;48659;41.622;2.276;2023-11-18T12:54:12;3;3;
62591;PMS5003;48659;41.622;2.276;2023-11-18T12:56:41;3;3;
62591;PMS5003;48659;41.622;2.276;2023-11-18T12:59:15;7;4;
62591;PMS5003;48659;41.622;2.276;2023-11-18T13:01:43;7;5;
62591;PMS5003;48659;41.622;2.276;2023-11-18T13:04:13;6;5;
62591;PMS5003;48659;41.622;2.276;2023-11-18T13:06:41;7;5;
62591;PMS5003;48659;41.622;2.276;2023-11-18T13:09:09;8;6;
62591;PMS5003;48659;41.622;2.276;2023-11-18T13:11:36;12;10;
62591;PMS5003;48659;41.622;2.276;2023-11-18T13:14:04;20;18;
62591;PMS5003;48659;41.622;2.276;2023-11-18T13:16:31;5;5;
62591;PMS5003;48659;41.622;2.276;2023-11-18T13:19:00;17;16;
62591;PMS5003;48659;41.622;2.276;2023-11-18T13:21:29;18;15;
62591;PMS5003;48659;41.622;2.276;2023-11-18T13:23:57;9;7;
62591;PMS5003;48659;41.622;2.276;2023-11-18T13:26:24;9;9;
62591;PMS5003;48659;41.622;2.276;2023-11-18T13:28:52;12;10;
62591;PMS5003;48659;41.622;2.276;2023-11-18T13:31:20;7;6;
62591;PMS5003;48659;41.622;2.276;2023-11-18T13:33:47;7;7;
62591;PMS5003;48659;41.622;2.276;2023-11-18T13:36:15;5;4;
62591;PMS5003;48659;41.622;2.276;2023-11-18T13:38:47;7;7;
62591;PMS5003;48659;41.622;2.276;2023-11-18T13:41:28;6;6;
62591;PMS5003;48659;41.622;2.276;2023-11-18T13:43:55;4;4;
62591;PMS5003;48659;41.622;2.276;2023-11-18T13:46:23;5;4;
62591;PMS5003;48659;41.622;2.276;2023-11-18T13:48:52;6;6;
62591;PMS5003;48659;41.622;2.276;2023-11-18T13:51:21;7;5;
62591;PMS5003;48659;41.622;2.276;2023-11-18T13:53:49;6;5;
62591;PMS5003;48659;41.622;2.276;2023-11-18T13:56:18;11;10;
62591;PMS5003;48659;41.622;2.276;2023-11-18T13:58:45;7;7;
62591;PMS5003;48659;41.622;2.276;2023-11-18T14:01:13;14;13;
62591;PMS5003;48659;41.622;2.276;2023-11-18T14:03:41;11;9;
62591;PMS5003;48659;41.622;2.276;2023-11-18T14:06:09;7;7;
62591;PMS5003;48659;41.622;2.276;2023-11-18T14:08:37;10;7;
62591;PMS5003;48659;41.622;2.276;2023-11-18T14:11:05;10;9;
62591;PMS5003;48659;41.622;2.276;2023-11-18T14:13:32;6;6;
62591;PMS5003;48659;41.622;2.276;2023-11-18T14:16:00;8;8;
62591;PMS5003;48659;41.622;2.276;2023-11-18T14:18:28;6;5;
62591;PMS5003;48659;41.622;2.276;2023-11-18T14:20:56;8;6;
62591;PMS5003;48659;41.622;2.276;2023-11-18T14:23:24;10;8;
62591;PMS5003;48659;41.622;2.276;2023-11-18T14:25:51;9;8;
62591;PMS5003;48659;41.622;2.276;2023-11-18T14:28:19;8;8;
62591;PMS5003;48659;41.622;2.276;2023-11-18T14:30:47;6;6;
62591;PMS5003;48659;41.622;2.276;2023-11-18T14:33:15;6;6;
62591;PMS5003;48659;41.622;2.276;2023-11-18T14:35:43;6;6;
62591;PMS5003;48659;41.622;2.276;2023-11-18T14:38:12;8;8;
62591;PMS5003;48659;41.622;2.276;2023-11-18T14:40:39;7;6;
62591;PMS5003;48659;41.622;2.276;2023-11-18T14:43:07;11;9;
62591;PMS5003;48659;41.622;2.276;2023-11-18T14:45:35;5;5;
62591;PMS5003;48659;41.622;2.276;2023-11-18T14:48:04;6;5;
62591;PMS5003;48659;41.622;2.276;2023-11-18T14:50:33;8;6;
62591;PMS5003;48659;41.622;2.276;2023-11-18T14:53:00;8;6;
62591;PMS5003;48659;41.622;2.276;2023-11-18T14:55:27;3;3;
62591;PMS5003;48659;41.622;2.276;2023-11-18T14:57:55;5;5;
62591;PMS5003;48659;41.622;2.276;2023-11-18T15:00:24;4;4;
62591;PMS5003;48659;41.622;2.276;2023-11-18T15:02:52;4;4;
62591;PMS5003;48659;41.622;2.276;2023-11-18T15:05:21;5;5;
62591;PMS5003;48659;41.622;2.276;2023-11-18T15:07:49;7;5;
62591;PMS5003;48659;41.622;2.276;2023-11-18T15:10:19;22;18;
62591;PMS5003;48659;41.622;2.276;2023-11-18T15:12:48;12;12;
62591;PMS5003;48659;41.622;2.276;2023-11-18T15:15:17;7;6;
62591;PMS5003;48659;41.622;2.276;2023-11-18T15:17:45;3;3;
62591;PMS5003;48659;41.622;2.276;2023-11-18T15:20:13;6;5;
62591;PMS5003;48659;41.622;2.276;2023-11-18T15:22:41;5;5;
62591;PMS5003;48659;41.622;2.276;2023-11-18T15:25:10;5;4;
62591;PMS5003;48659;41.622;2.276;2023-11-18T15:27:40;5;4;
62591;PMS5003;48659;41.622;2.276;2023-11-18T15:30:09;6;4;
62591;PMS5003;48659;41.622;2.276;2023-11-18T15:32:38;3;3;
62591;PMS5003;48659;41.622;2.276;2023-11-18T15:35:07;4;4;
62591;PMS5003;48659;41.622;2.276;2023-11-18T15:37:36;7;5;
62591;PMS5003;48659;41.622;2.276;2023-11-18T15:40:06;5;4;
62591;PMS5003;48659;41.622;2.276;2023-11-18T15:42:36;8;8;
62591;PMS5003;48659;41.622;2.276;2023-11-18T15:45:07;19;16;
62591;PMS5003;48659;41.622;2.276;2023-11-18T15:47:37;16;13;
62591;PMS5003;48659;41.622;2.276;2023-11-18T15:50:05;15;14;
62591;PMS5003;48659;41.622;2.276;2023-11-18T15:52:34;9;7;
62591;PMS5003;48659;41.622;2.276;2023-11-18T15:55:02;10;9;
62591;PMS5003;48659;41.622;2.276;2023-11-18T15:57:30;14;11;
62591;PMS5003;48659;41.622;2.276;2023-11-18T15:59:58;7;7;
62591;PMS5003;48659;41.622;2.276;2023-11-18T16:02:27;8;5;
62591;PMS5003;48659;41.622;2.276;2023-11-18T16:04:54;7;6;
62591;PMS5003;48659;41.622;2.276;2023-11-18T16:07:22;10;6;
62591;PMS5003;48659;41.622;2.276;2023-11-18T16:09:51;7;6;
62591;PMS5003;48659;41.622;2.276;2023-11-18T16:12:19;11;8;
62591;PMS5003;48659;41.622;2.276;2023-11-18T16:14:47;10;8;
62591;PMS5003;48659;41.622;2.276;2023-11-18T16:17:16;8;8;
62591;PMS5003;48659;41.622;2.276;2023-11-18T16:19:44;9;9;
62591;PMS5003;48659;41.622;2.276;2023-11-18T16:22:15;10;9;
62591;PMS5003;48659;41.622;2.276;2023-11-18T16:24:43;11;8;
62591;PMS5003;48659;41.622;2.276;2023-11-18T16:27:11;10;9;
62591;PMS5003;48659;41.622;2.276;2023-11-18T16:29:39;9;8;
62591;PMS5003;48659;41.622;2.276;2023-11-18T16:32:07;8;8;
62591;PMS5003;48659;41.622;2.276;2023-11-18T16:34:35;8;6;
62591;PMS5003;48659;41.622;2.276;2023-11-18T16:37:04;6;6;
62591;PMS5003;48659;41.622;2.276;2023-11-18T16:39:32;8;7;
62591;PMS5003;48659;41.622;2.276;2023-11-18T16:42:02;12;9;
62591;PMS5003;48659;41.622;2.276;2023-11-18T16:44:30;6;6;